createdAt,value
2024-01-25T00:00:46.395Z,4.60
2024-01-25T00:01:46.441Z,4.80
2024-01-25T00:02:46.295Z,5.40
2024-01-25T00:03:46.335Z,4.50
2024-01-25T00:04:46.411Z,5.20
2024-01-25T00:05:46.394Z,5.00
2024-01-25T00:06:46.318Z,4.80
2024-01-25T00:07:46.245Z,4.70
2024-01-25T00:08:46.234Z,4.90
2024-01-25T00:09:46.251Z,4.70
2024-01-25T00:10:46.191Z,4.80
2024-01-25T00:11:46.203Z,5.00
2024-01-25T00:12:46.202Z,4.70
2024-01-25T00:13:46.164Z,4.80
2024-01-25T00:14:46.161Z,5.00
2024-01-25T00:15:46.163Z,4.50
2024-01-25T00:16:46.146Z,4.60
2024-01-25T00:17:46.195Z,4.90
2024-01-25T00:18:46.296Z,4.50
2024-01-25T00:19:46.191Z,4.50
2024-01-25T00:20:46.079Z,5.30
2024-01-25T00:21:46.203Z,5.10
2024-01-25T00:22:46.091Z,4.90
2024-01-25T00:23:46.057Z,4.80
2024-01-25T00:24:46.056Z,4.60
2024-01-25T00:25:46.029Z,4.50
2024-01-25T00:26:46.039Z,4.70
2024-01-25T00:27:46.340Z,5.00
2024-01-25T00:28:45.993Z,4.60
2024-01-25T00:29:45.988Z,5.10
2024-01-25T00:30:45.996Z,4.80
2024-01-25T00:31:45.942Z,4.90
2024-01-25T00:32:46.005Z,4.70
2024-01-25T00:33:46.195Z,4.80
2024-01-25T00:34:45.991Z,4.70
2024-01-25T00:35:45.916Z,5.20
2024-01-25T00:36:45.951Z,4.80
2024-01-25T00:37:45.877Z,4.80
2024-01-25T00:38:45.891Z,5.50
2024-01-25T00:39:45.946Z,4.50
2024-01-25T00:40:45.866Z,4.50
2024-01-25T00:41:45.835Z,4.90
2024-01-25T00:42:45.942Z,4.40
2024-01-25T00:43:45.840Z,4.40
2024-01-25T00:44:45.808Z,5.00
2024-01-25T00:45:45.844Z,4.50
2024-01-25T00:46:45.778Z,4.80
2024-01-25T00:47:45.781Z,4.40
2024-01-25T00:48:46.016Z,4.90
2024-01-25T00:49:45.863Z,4.80
2024-01-25T00:50:45.728Z,4.80
2024-01-25T00:51:45.763Z,4.70
2024-01-25T00:52:45.706Z,4.70
2024-01-25T00:53:45.704Z,4.80
2024-01-25T00:54:45.729Z,4.50
2024-01-25T00:55:45.664Z,4.70
2024-01-25T00:56:45.674Z,4.50
2024-01-25T00:57:45.698Z,4.50
2024-01-25T00:58:45.651Z,4.60
2024-01-25T00:59:45.650Z,3.90
2024-01-25T01:00:45.668Z,4.60
2024-01-25T01:01:45.623Z,4.80
2024-01-25T01:02:45.590Z,4.60
2024-01-25T01:03:45.676Z,4.40
2024-01-25T01:04:47.862Z,4.80
2024-01-25T01:05:45.645Z,5.30
2024-01-25T01:06:45.654Z,4.40
2024-01-25T01:07:45.636Z,4.60
2024-01-25T01:08:45.518Z,5.00
2024-01-25T01:09:45.535Z,4.30
2024-01-25T01:10:45.499Z,4.40
2024-01-25T01:11:45.517Z,4.90
2024-01-25T01:12:45.520Z,4.40
2024-01-25T01:13:45.453Z,4.40
2024-01-25T01:14:45.439Z,4.70
2024-01-25T01:15:45.450Z,4.80
2024-01-25T01:16:45.421Z,4.90
2024-01-25T01:17:45.472Z,4.70
2024-01-25T01:18:45.565Z,5.30
2024-01-25T01:19:45.503Z,4.40
2024-01-25T01:20:45.384Z,4.60
2024-01-25T01:21:45.410Z,4.80
2024-01-25T01:22:45.354Z,4.30
2024-01-25T01:23:45.339Z,4.50
2024-01-25T01:24:45.385Z,4.80
2024-01-25T01:25:45.316Z,4.60
2024-01-25T01:26:45.310Z,4.70
2024-01-25T01:27:45.295Z,4.90
2024-01-25T01:28:45.290Z,4.70
2024-01-25T01:29:45.286Z,4.60
2024-01-25T01:30:45.299Z,4.60
2024-01-25T01:31:45.244Z,5.10
2024-01-25T01:32:45.391Z,5.00
2024-01-25T01:33:45.367Z,4.50
2024-01-25T01:34:45.407Z,4.80
2024-01-25T01:35:45.238Z,5.00
2024-01-25T01:36:45.236Z,4.60
2024-01-25T01:37:45.196Z,4.40
2024-01-25T01:38:45.163Z,4.30
2024-01-25T01:39:45.193Z,4.80
2024-01-25T01:40:45.139Z,4.70
2024-01-25T01:41:45.131Z,4.40
2024-01-25T01:42:45.202Z,4.80
2024-01-25T01:43:45.101Z,4.20
2024-01-25T01:44:45.101Z,4.40
2024-01-25T01:45:45.162Z,5.30
2024-01-25T01:46:45.072Z,4.70
2024-01-25T01:47:45.213Z,5.00
2024-01-25T01:48:45.281Z,5.00
2024-01-25T01:49:45.355Z,4.50
2024-01-25T01:50:45.071Z,4.40
2024-01-25T01:51:45.405Z,4.60
2024-01-25T01:52:45.011Z,4.50
2024-01-25T01:53:44.995Z,4.30
2024-01-25T01:54:45.010Z,5.20
2024-01-25T01:55:44.958Z,4.60
2024-01-25T01:56:44.944Z,4.00
2024-01-25T01:57:45.002Z,4.80
2024-01-25T01:58:44.983Z,5.20
2024-01-25T01:59:44.917Z,4.50
2024-01-25T02:00:44.960Z,4.50
2024-01-25T02:01:44.986Z,4.50
2024-01-25T02:02:44.894Z,4.40
2024-01-25T02:03:44.919Z,3.90
2024-01-25T02:04:45.028Z,4.70
2024-01-25T02:05:44.887Z,4.60
2024-01-25T02:06:45.127Z,4.20
2024-01-25T02:07:44.934Z,4.40
2024-01-25T02:08:44.807Z,5.30
2024-01-25T02:09:44.830Z,5.10
2024-01-25T02:10:44.795Z,4.00
2024-01-25T02:11:44.758Z,4.40
2024-01-25T02:12:44.839Z,4.40
2024-01-25T02:13:44.748Z,4.60
2024-01-25T02:14:44.735Z,4.70
2024-01-25T02:15:44.770Z,4.50
2024-01-25T02:16:44.830Z,4.80
2024-01-25T02:17:44.712Z,4.50
2024-01-25T02:18:44.811Z,4.70
2024-01-25T02:19:44.738Z,4.50
2024-01-25T02:20:44.666Z,4.90
2024-01-25T02:21:44.696Z,4.40
2024-01-25T02:22:44.642Z,3.90
2024-01-25T02:23:44.659Z,4.30
2024-01-25T02:24:44.666Z,4.40
2024-01-25T02:25:44.601Z,4.20
2024-01-25T02:26:44.583Z,4.30
2024-01-25T02:27:44.626Z,4.90
2024-01-25T02:28:44.584Z,4.10
2024-01-25T02:29:44.550Z,4.30
2024-01-25T02:30:44.577Z,4.60
2024-01-25T02:31:44.563Z,4.80
2024-01-25T02:32:44.598Z,4.20
2024-01-25T02:33:44.666Z,4.30
2024-01-25T02:34:44.635Z,4.80
2024-01-25T02:35:44.494Z,4.30
2024-01-25T02:36:44.519Z,4.60
2024-01-25T02:37:44.479Z,4.80
2024-01-25T02:38:44.443Z,4.00
2024-01-25T02:39:44.442Z,4.60
2024-01-25T02:40:44.419Z,4.30
2024-01-25T02:41:44.424Z,4.40
2024-01-25T02:42:44.478Z,4.90
2024-01-25T02:43:44.383Z,4.50
2024-01-25T02:44:44.381Z,4.80
2024-01-25T02:45:44.400Z,4.40
2024-01-25T02:46:44.357Z,4.30
2024-01-25T02:47:44.541Z,4.00
2024-01-25T02:48:44.491Z,4.40
2024-01-25T02:49:44.759Z,4.60
2024-01-25T02:50:44.305Z,4.40
2024-01-25T02:51:44.292Z,4.70
2024-01-25T02:52:44.296Z,4.70
2024-01-25T02:53:44.276Z,4.20
2024-01-25T02:54:44.298Z,4.60
2024-01-25T02:55:44.259Z,4.30
2024-01-25T02:56:44.234Z,4.70
2024-01-25T02:57:44.236Z,4.30
2024-01-25T02:58:51.290Z,4.00
2024-01-25T02:59:44.199Z,4.30
2024-01-25T03:00:44.346Z,4.60
2024-01-25T03:01:44.302Z,4.40
2024-01-25T03:02:44.158Z,4.40
2024-01-25T03:03:44.189Z,4.10
2024-01-25T03:04:44.286Z,4.50
2024-01-25T03:05:44.334Z,4.00
2024-01-25T03:06:44.330Z,4.50
2024-01-25T03:07:44.155Z,4.40
2024-01-25T03:08:44.097Z,4.10
2024-01-25T03:09:44.102Z,4.00
2024-01-25T03:10:44.071Z,4.10
2024-01-25T03:11:44.070Z,5.60
2024-01-25T03:12:44.117Z,4.10
2024-01-25T03:13:44.029Z,4.80
2024-01-25T03:14:44.036Z,4.70
2024-01-25T03:15:44.080Z,5.20
2024-01-25T03:16:44.009Z,4.90
2024-01-25T03:17:44.043Z,4.60
2024-01-25T03:18:44.096Z,4.70
2024-01-25T03:19:44.138Z,4.50
2024-01-25T03:20:43.947Z,4.20
2024-01-25T03:21:43.975Z,4.70
2024-01-25T03:22:43.932Z,4.10
2024-01-25T03:23:43.937Z,4.40
2024-01-25T03:24:43.954Z,3.90
2024-01-25T03:25:43.904Z,4.00
2024-01-25T03:26:43.889Z,4.40
2024-01-25T03:27:43.889Z,4.30
2024-01-25T03:28:43.858Z,4.40
2024-01-25T03:29:43.876Z,4.10
2024-01-25T03:30:43.847Z,4.70
2024-01-25T03:31:43.819Z,5.00
2024-01-25T03:32:43.868Z,4.50
2024-01-25T03:33:44.104Z,4.20
2024-01-25T03:34:43.917Z,4.50
2024-01-25T03:35:43.772Z,4.40
2024-01-25T03:36:43.807Z,4.40
2024-01-25T03:37:43.749Z,4.40
2024-01-25T03:38:43.738Z,4.20
2024-01-25T03:39:43.799Z,4.40
2024-01-25T03:40:45.530Z,4.50
2024-01-25T03:41:43.731Z,4.50
2024-01-25T03:42:54.229Z,5.00
2024-01-25T03:43:45.064Z,4.30
2024-01-25T03:44:43.686Z,4.90
2024-01-25T03:45:43.709Z,4.10
2024-01-25T03:46:43.665Z,4.10
2024-01-25T03:47:43.673Z,4.60
2024-01-25T03:48:43.696Z,4.50
2024-01-25T03:49:43.738Z,4.70
2024-01-25T03:50:43.676Z,4.40
2024-01-25T03:51:43.645Z,4.30
2024-01-25T03:52:43.586Z,4.40
2024-01-25T03:53:43.561Z,4.70
2024-01-25T03:54:43.601Z,4.20
2024-01-25T03:55:43.547Z,4.20
2024-01-25T03:56:43.576Z,4.10
2024-01-25T03:57:43.619Z,4.60
2024-01-25T03:58:43.595Z,4.20
2024-01-25T03:59:43.518Z,4.80
2024-01-25T04:00:43.566Z,4.40
2024-01-25T04:01:43.518Z,4.60
2024-01-25T04:02:43.456Z,4.20
2024-01-25T04:03:43.610Z,4.00
2024-01-25T04:04:43.464Z,4.90
2024-01-25T04:05:43.485Z,4.60
2024-01-25T04:06:43.451Z,4.50
2024-01-25T04:07:43.400Z,4.30
2024-01-25T04:08:43.400Z,4.20
2024-01-25T04:09:43.430Z,4.40
2024-01-25T04:10:43.384Z,4.00
2024-01-25T04:11:43.379Z,4.50
2024-01-25T04:12:43.401Z,4.30
2024-01-25T04:13:43.323Z,4.20
2024-01-25T04:14:43.318Z,4.40
2024-01-25T04:15:43.388Z,4.40
2024-01-25T04:16:43.309Z,4.40
2024-01-25T04:17:43.358Z,4.50
2024-01-25T04:18:43.425Z,4.30
2024-01-25T04:19:43.364Z,4.40
2024-01-25T04:20:43.375Z,4.20
2024-01-25T04:21:43.326Z,4.30
2024-01-25T04:22:43.241Z,4.70
2024-01-25T04:23:43.211Z,4.10
2024-01-25T04:24:43.272Z,3.80
2024-01-25T04:25:43.290Z,4.40
2024-01-25T04:26:43.177Z,4.30
2024-01-25T04:27:43.213Z,4.80
2024-01-25T04:28:43.169Z,4.10
2024-01-25T04:29:43.139Z,4.40
2024-01-25T04:30:43.187Z,4.30
2024-01-25T04:31:43.120Z,3.90
2024-01-25T04:32:43.185Z,4.40
2024-01-25T04:33:46.823Z,4.60
2024-01-25T04:34:44.266Z,4.50
2024-01-25T04:35:43.137Z,4.40
2024-01-25T04:36:43.151Z,4.10
2024-01-25T04:37:43.052Z,4.40
2024-01-25T04:38:43.043Z,4.50
2024-01-25T04:39:43.108Z,4.10
2024-01-25T04:40:43.053Z,4.10
2024-01-25T04:41:43.002Z,4.50
2024-01-25T04:42:43.059Z,4.20
2024-01-25T04:43:42.988Z,4.40
2024-01-25T04:44:42.981Z,4.60
2024-01-25T04:45:43.006Z,4.60
2024-01-25T04:46:42.976Z,4.60
2024-01-25T04:47:42.976Z,4.70
2024-01-25T04:48:43.401Z,4.30
2024-01-25T04:49:43.004Z,4.30
2024-01-25T04:50:42.953Z,4.10
2024-01-25T04:51:42.986Z,4.20
2024-01-25T04:52:42.902Z,5.10
2024-01-25T04:53:42.860Z,4.70
2024-01-25T04:54:42.877Z,4.70
2024-01-25T04:55:42.842Z,4.60
2024-01-25T04:56:42.831Z,4.40
2024-01-25T04:57:42.865Z,4.80
2024-01-25T04:58:42.818Z,4.60
2024-01-25T04:59:42.795Z,5.10
2024-01-25T05:00:42.913Z,5.10
2024-01-25T05:01:42.874Z,4.60
2024-01-25T05:02:42.761Z,4.80
2024-01-25T05:03:42.975Z,4.60
2024-01-25T05:04:46.120Z,4.50
2024-01-25T05:05:42.717Z,4.40
2024-01-25T05:06:42.736Z,4.20
2024-01-25T05:07:42.815Z,4.80
2024-01-25T05:08:42.866Z,4.40
2024-01-25T05:09:42.740Z,4.60
2024-01-25T05:10:42.684Z,5.30
2024-01-25T05:11:42.653Z,4.60
2024-01-25T05:12:42.693Z,4.60
2024-01-25T05:13:42.623Z,4.60
2024-01-25T05:14:42.652Z,4.70
2024-01-25T05:15:42.650Z,5.90
2024-01-25T05:16:42.629Z,4.80
2024-01-25T05:17:42.631Z,5.20
2024-01-25T05:18:42.879Z,5.00
2024-01-25T05:19:42.747Z,5.00
2024-01-25T05:20:42.586Z,5.50
2024-01-25T05:21:42.609Z,5.10
2024-01-25T05:22:42.567Z,4.80
2024-01-25T05:23:42.592Z,5.10
2024-01-25T05:24:42.530Z,4.60
2024-01-25T05:25:42.599Z,4.70
2024-01-25T05:26:42.479Z,4.90
2024-01-25T05:27:42.574Z,5.00
2024-01-25T05:28:42.472Z,5.70
2024-01-25T05:29:42.452Z,5.10
2024-01-25T05:30:42.477Z,5.50
2024-01-25T05:31:42.493Z,5.40
2024-01-25T05:32:42.488Z,5.10
2024-01-25T05:33:42.674Z,5.90
2024-01-25T05:34:42.542Z,5.40
2024-01-25T05:35:42.417Z,5.20
2024-01-25T05:36:42.435Z,5.30
2024-01-25T05:37:42.363Z,5.00
2024-01-25T05:38:42.340Z,4.90
2024-01-25T05:39:42.379Z,5.20
2024-01-25T05:40:42.326Z,4.90
2024-01-25T05:41:42.335Z,4.60
2024-01-25T05:42:42.379Z,5.20
2024-01-25T05:43:42.289Z,5.10
2024-01-25T05:44:42.272Z,5.70
2024-01-25T05:45:42.283Z,5.10
2024-01-25T05:46:42.251Z,5.30
2024-01-25T05:47:42.292Z,5.80
2024-01-25T05:48:42.508Z,5.30
2024-01-25T05:49:42.305Z,5.40
2024-01-25T05:50:42.210Z,5.00
2024-01-25T05:51:42.232Z,5.30
2024-01-25T05:52:42.181Z,4.90
2024-01-25T05:53:42.183Z,5.50
2024-01-25T05:54:42.185Z,5.00
2024-01-25T05:55:42.166Z,5.40
2024-01-25T05:56:42.139Z,5.50
2024-01-25T05:57:42.138Z,5.00
2024-01-25T05:58:42.138Z,5.50
2024-01-25T05:59:42.098Z,5.70
2024-01-25T06:00:42.200Z,5.50
2024-01-25T06:01:42.136Z,5.20
2024-01-25T06:02:42.051Z,5.60
2024-01-25T06:03:42.171Z,5.40
2024-01-25T06:04:42.475Z,5.20
2024-01-25T06:05:42.220Z,5.80
2024-01-25T06:06:42.157Z,4.80
2024-01-25T06:07:42.265Z,5.50
2024-01-25T06:08:42.571Z,4.80
2024-01-25T06:09:42.026Z,5.50
2024-01-25T06:10:42.054Z,5.40
2024-01-25T06:11:41.953Z,6.10
2024-01-25T06:12:42.096Z,5.40
2024-01-25T06:13:41.949Z,5.40
2024-01-25T06:14:41.922Z,5.00
2024-01-25T06:15:41.978Z,5.40
2024-01-25T06:16:43.371Z,5.70
2024-01-25T06:17:41.889Z,5.20
2024-01-25T06:18:41.951Z,6.10
2024-01-25T06:19:41.973Z,5.00
2024-01-25T06:20:41.932Z,5.60
2024-01-25T06:21:41.931Z,5.20
2024-01-25T06:22:41.835Z,5.50
2024-01-25T06:23:41.818Z,5.60
2024-01-25T06:24:41.868Z,5.30
2024-01-25T06:25:41.851Z,5.80
2024-01-25T06:26:41.777Z,5.40
2024-01-25T06:27:41.811Z,5.80
2024-01-25T06:28:41.754Z,6.00
2024-01-25T06:29:41.747Z,5.70
2024-01-25T06:30:41.768Z,5.40
2024-01-25T06:31:41.722Z,5.30
2024-01-25T06:32:41.767Z,5.70
2024-01-25T06:33:41.824Z,5.70
2024-01-25T06:34:41.852Z,5.60
2024-01-25T06:35:41.701Z,5.70
2024-01-25T06:36:41.764Z,5.40
2024-01-25T06:37:41.707Z,4.90
2024-01-25T06:38:41.633Z,5.50
2024-01-25T06:39:41.675Z,5.80
2024-01-25T06:40:41.615Z,5.90
2024-01-25T06:41:41.603Z,5.60
2024-01-25T06:42:41.655Z,5.40
2024-01-25T06:43:41.585Z,5.60
2024-01-25T06:44:41.578Z,5.70
2024-01-25T06:45:41.621Z,5.40
2024-01-25T06:46:41.541Z,5.60
2024-01-25T06:47:41.604Z,5.30
2024-01-25T06:48:41.726Z,5.30
2024-01-25T06:49:41.603Z,5.90
2024-01-25T06:50:41.693Z,5.20
2024-01-25T06:51:41.526Z,5.40
2024-01-25T06:52:41.472Z,6.00
2024-01-25T06:53:41.469Z,6.20
2024-01-25T06:54:41.592Z,6.10
2024-01-25T06:55:41.468Z,5.90
2024-01-25T06:56:41.427Z,6.00
2024-01-25T06:57:41.500Z,6.30
2024-01-25T06:58:41.423Z,5.70
2024-01-25T06:59:41.399Z,5.60
2024-01-25T07:00:41.487Z,6.00
2024-01-25T07:01:41.455Z,6.40
2024-01-25T07:02:41.424Z,5.60
2024-01-25T07:03:41.430Z,5.60
2024-01-25T07:04:41.421Z,5.10
2024-01-25T07:05:41.334Z,5.60
2024-01-25T07:06:41.363Z,5.90
2024-01-25T07:07:41.380Z,6.30
2024-01-25T07:08:41.286Z,6.20
2024-01-25T07:09:41.374Z,6.20
2024-01-25T07:10:41.261Z,5.70
2024-01-25T07:11:41.259Z,5.70
2024-01-25T07:12:41.358Z,5.70
2024-01-25T07:13:41.226Z,6.20
2024-01-25T07:14:41.240Z,6.10
2024-01-25T07:15:41.285Z,6.20
2024-01-25T07:16:41.198Z,5.90
2024-01-25T07:17:41.228Z,6.00
2024-01-25T07:18:41.240Z,6.10
2024-01-25T07:19:41.266Z,5.90
2024-01-25T07:20:41.362Z,5.80
2024-01-25T07:21:41.195Z,6.30
2024-01-25T07:22:41.128Z,5.70
2024-01-25T07:23:41.115Z,6.10
2024-01-25T07:24:41.120Z,5.70
2024-01-25T07:25:41.150Z,6.30
2024-01-25T07:26:41.082Z,6.60
2024-01-25T07:27:41.104Z,6.20
2024-01-25T07:28:41.052Z,6.30
2024-01-25T07:29:41.057Z,6.50
2024-01-25T07:30:41.057Z,5.90
2024-01-25T07:31:41.045Z,6.50
2024-01-25T07:32:41.069Z,6.00
2024-01-25T07:33:41.259Z,6.40
2024-01-25T07:34:41.239Z,6.40
2024-01-25T07:35:40.994Z,7.10
2024-01-25T07:36:42.479Z,7.20
2024-01-25T07:37:40.986Z,7.00
2024-01-25T07:38:40.940Z,7.50
2024-01-25T07:39:40.981Z,6.90
2024-01-25T07:40:40.918Z,7.50
2024-01-25T07:41:40.900Z,7.20
2024-01-25T07:42:40.981Z,7.00
2024-01-25T07:43:40.885Z,8.00
2024-01-25T07:44:40.874Z,8.30
2024-01-25T07:45:40.916Z,9.30
2024-01-25T07:46:40.866Z,9.90
2024-01-25T07:47:40.885Z,10.00
2024-01-25T07:48:40.842Z,9.50
2024-01-25T07:49:40.952Z,9.40
2024-01-25T07:50:40.993Z,9.00
2024-01-25T07:51:40.816Z,10.10
2024-01-25T07:52:40.811Z,9.50
2024-01-25T07:53:40.796Z,9.50
2024-01-25T07:54:40.839Z,8.70
2024-01-25T07:55:40.835Z,9.00
2024-01-25T07:56:40.728Z,8.90
2024-01-25T07:57:40.744Z,9.20
2024-01-25T07:58:40.710Z,9.20
2024-01-25T07:59:40.725Z,9.50
2024-01-25T08:00:40.790Z,12.90
2024-01-25T08:01:40.710Z,11.50
2024-01-25T08:02:40.661Z,10.60
2024-01-25T08:03:40.746Z,10.10
2024-01-25T08:04:40.690Z,9.90
2024-01-25T08:05:45.330Z,9.60
2024-01-25T08:06:41.704Z,9.50
2024-01-25T08:07:40.682Z,9.80
2024-01-25T08:08:40.606Z,9.60
2024-01-25T08:09:40.682Z,10.50
2024-01-25T08:10:40.605Z,10.10
2024-01-25T08:11:40.547Z,10.50
2024-01-25T08:12:45.408Z,10.40
2024-01-25T08:13:41.572Z,10.30
2024-01-25T08:14:40.564Z,11.20
2024-01-25T08:15:40.546Z,11.20
2024-01-25T08:16:40.538Z,10.70
2024-01-25T08:17:40.618Z,11.10
2024-01-25T08:18:40.515Z,12.20
2024-01-25T08:19:40.646Z,11.80
2024-01-25T08:20:40.752Z,11.50
2024-01-25T08:21:40.469Z,11.80
2024-01-25T08:22:40.443Z,12.30
2024-01-25T08:23:40.413Z,11.90
2024-01-25T08:24:40.443Z,12.40
2024-01-25T08:25:40.433Z,12.60
2024-01-25T08:26:40.370Z,12.80
2024-01-25T08:27:40.430Z,13.50
2024-01-25T08:28:40.383Z,13.60
2024-01-25T08:29:40.362Z,13.80
2024-01-25T08:30:40.415Z,13.70
2024-01-25T08:31:40.395Z,14.30
2024-01-25T08:32:40.424Z,13.80
2024-01-25T08:33:40.456Z,13.80
2024-01-25T08:34:40.469Z,13.10
2024-01-25T08:35:40.405Z,14.50
2024-01-25T08:36:40.286Z,13.60
2024-01-25T08:37:40.253Z,13.70
2024-01-25T08:38:40.257Z,14.30
2024-01-25T08:39:40.289Z,13.90
2024-01-25T08:40:40.260Z,13.60
2024-01-25T08:41:41.970Z,13.90
2024-01-25T08:42:40.245Z,13.20
2024-01-25T08:43:40.200Z,13.80
2024-01-25T08:44:40.220Z,13.70
2024-01-25T08:45:40.226Z,13.80
2024-01-25T08:46:40.220Z,13.50
2024-01-25T08:47:40.162Z,13.00
2024-01-25T08:48:40.301Z,12.70
2024-01-25T08:49:40.249Z,12.60
2024-01-25T08:50:40.198Z,12.30
2024-01-25T08:51:40.152Z,12.90
2024-01-25T08:52:40.102Z,13.10
2024-01-25T08:53:40.067Z,13.00
2024-01-25T08:54:40.101Z,13.30
2024-01-25T08:55:40.093Z,12.60
2024-01-25T08:56:40.048Z,13.00
2024-01-25T08:57:40.085Z,12.20
2024-01-25T08:58:40.032Z,13.00
2024-01-25T08:59:40.016Z,12.50
2024-01-25T09:00:40.213Z,13.30
2024-01-25T09:01:40.019Z,11.90
2024-01-25T09:02:40.067Z,12.60
2024-01-25T09:03:40.084Z,12.20
2024-01-25T09:04:40.022Z,12.80
2024-01-25T09:05:40.026Z,12.60
2024-01-25T09:06:40.053Z,12.20
2024-01-25T09:07:40.160Z,12.00
2024-01-25T09:08:39.963Z,11.70
2024-01-25T09:09:40.979Z,11.90
2024-01-25T09:10:40.050Z,11.60
2024-01-25T09:11:39.916Z,11.50
2024-01-25T09:12:39.905Z,11.50
2024-01-25T09:13:45.704Z,11.40
2024-01-25T09:14:40.825Z,10.70
2024-01-25T09:15:39.875Z,11.00
2024-01-25T09:16:39.912Z,10.70
2024-01-25T09:17:39.951Z,10.80
2024-01-25T09:18:40.081Z,10.90
2024-01-25T09:19:40.004Z,10.30
2024-01-25T09:20:39.812Z,10.90
2024-01-25T09:21:39.885Z,11.10
2024-01-25T09:22:39.776Z,11.00
2024-01-25T09:23:39.717Z,10.20
2024-01-25T09:24:39.778Z,10.80
2024-01-25T09:25:39.737Z,9.90
2024-01-25T09:26:39.722Z,10.80
2024-01-25T09:27:40.032Z,10.20
2024-01-25T09:28:39.783Z,10.40
2024-01-25T09:29:39.655Z,10.50
2024-01-25T09:30:39.664Z,10.60
2024-01-25T09:31:39.919Z,10.80
2024-01-25T09:32:39.705Z,10.40
2024-01-25T09:33:39.925Z,10.70
2024-01-25T09:34:40.836Z,11.20
2024-01-25T09:35:39.782Z,11.50
2024-01-25T09:36:39.622Z,10.50
2024-01-25T09:37:39.617Z,10.50
2024-01-25T09:38:39.585Z,10.80
2024-01-25T09:39:39.578Z,11.30
2024-01-25T09:40:39.580Z,11.40
2024-01-25T09:41:39.511Z,11.80
2024-01-25T09:42:39.533Z,12.20
2024-01-25T09:43:39.543Z,11.50
2024-01-25T09:44:39.463Z,11.60
2024-01-25T09:45:39.538Z,10.90
2024-01-25T09:46:39.575Z,11.00
2024-01-25T09:47:39.509Z,10.50
2024-01-25T09:48:39.581Z,11.00
2024-01-25T09:49:39.749Z,11.60
2024-01-25T09:50:42.211Z,11.20
2024-01-25T09:51:39.427Z,12.00
2024-01-25T09:52:39.468Z,10.80
2024-01-25T09:53:39.360Z,11.30
2024-01-25T09:54:39.468Z,11.80
2024-01-25T09:55:39.491Z,11.20
2024-01-25T09:56:39.328Z,10.70
2024-01-25T09:57:39.422Z,11.20
2024-01-25T09:58:39.340Z,11.10
2024-01-25T09:59:39.298Z,11.00
2024-01-25T10:00:39.427Z,11.90
2024-01-25T10:01:39.464Z,11.00
2024-01-25T10:02:39.406Z,11.10
2024-01-25T10:03:39.418Z,10.20
2024-01-25T10:04:39.337Z,10.70
2024-01-25T10:05:39.443Z,11.00
2024-01-25T10:06:39.399Z,10.40
2024-01-25T10:07:39.363Z,10.70
2024-01-25T10:08:39.194Z,10.60
2024-01-25T10:09:39.225Z,11.30
2024-01-25T10:10:39.182Z,10.50
2024-01-25T10:11:42.987Z,10.50
2024-01-25T10:12:40.307Z,10.80
2024-01-25T10:13:39.179Z,11.40
2024-01-25T10:14:39.107Z,10.60
2024-01-25T10:15:39.147Z,10.50
2024-01-25T10:16:39.367Z,10.30
2024-01-25T10:18:39.324Z,10.60
2024-01-25T10:19:39.341Z,9.70
2024-01-25T10:20:39.227Z,9.90
2024-01-25T10:21:39.352Z,9.90
2024-01-25T10:22:39.125Z,10.40
2024-01-25T10:23:39.056Z,10.70
2024-01-25T10:24:39.086Z,9.30
2024-01-25T10:25:39.044Z,10.10
2024-01-25T10:26:38.980Z,10.10
2024-01-25T10:27:39.007Z,10.50
2024-01-25T10:28:39.264Z,10.40
2024-01-25T10:29:39.136Z,10.10
2024-01-25T10:30:38.973Z,10.30
2024-01-25T10:31:39.091Z,10.40
2024-01-25T10:32:38.996Z,10.50
2024-01-25T10:33:38.979Z,9.70
2024-01-25T10:34:38.990Z,10.10
2024-01-25T10:35:39.013Z,9.90
2024-01-25T10:36:38.888Z,10.20
2024-01-25T10:37:38.855Z,10.00
2024-01-25T10:38:38.909Z,9.50
2024-01-25T10:39:38.867Z,10.20
2024-01-25T10:40:38.912Z,9.70
2024-01-25T10:41:38.789Z,9.60
2024-01-25T10:42:38.887Z,9.50
2024-01-25T10:43:38.867Z,9.10
2024-01-25T10:44:38.782Z,8.90
2024-01-25T10:45:38.788Z,9.30
2024-01-25T10:46:38.885Z,10.10
2024-01-25T10:47:38.778Z,9.30
2024-01-25T10:48:38.805Z,9.40
2024-01-25T10:49:38.865Z,9.10
2024-01-25T10:50:38.850Z,8.40
2024-01-25T10:51:38.698Z,9.90
2024-01-25T10:52:38.731Z,9.10
2024-01-25T10:53:38.641Z,9.30
2024-01-25T10:54:38.706Z,8.90
2024-01-25T10:55:38.768Z,8.40
2024-01-25T10:56:38.619Z,8.90
2024-01-25T10:57:38.622Z,8.80
2024-01-25T10:58:39.058Z,8.90
2024-01-25T10:59:38.586Z,9.40
2024-01-25T11:00:38.663Z,9.00
2024-01-25T11:01:38.643Z,8.80
2024-01-25T11:02:38.635Z,9.10
2024-01-25T11:03:38.616Z,9.60
2024-01-25T11:04:38.626Z,9.70
2024-01-25T11:05:38.837Z,9.70
2024-01-25T11:06:38.656Z,9.30
2024-01-25T11:07:38.521Z,10.10
2024-01-25T11:08:38.502Z,9.40
2024-01-25T11:09:38.505Z,9.00
2024-01-25T11:10:38.501Z,8.20
2024-01-25T11:11:38.463Z,9.20
2024-01-25T11:12:38.494Z,8.80
2024-01-25T11:13:38.492Z,9.10
2024-01-25T11:14:41.103Z,9.40
2024-01-25T11:15:38.625Z,9.20
2024-01-25T11:16:38.563Z,9.30
2024-01-25T11:17:38.414Z,8.60
2024-01-25T11:18:38.516Z,8.60
2024-01-25T11:19:38.525Z,8.90
2024-01-25T11:20:38.844Z,8.80
2024-01-25T11:21:38.407Z,9.30
2024-01-25T11:22:38.353Z,9.30
2024-01-25T11:23:38.313Z,9.10
2024-01-25T11:24:38.348Z,9.50
2024-01-25T11:25:38.311Z,8.30
2024-01-25T11:26:38.301Z,8.60
2024-01-25T11:27:38.317Z,8.00
2024-01-25T11:28:38.323Z,7.90
2024-01-25T11:29:40.614Z,7.40
2024-01-25T11:30:38.288Z,7.80
2024-01-25T11:31:38.321Z,8.50
2024-01-25T11:32:38.285Z,6.90
2024-01-25T11:33:38.333Z,7.70
2024-01-25T11:34:38.398Z,7.80
2024-01-25T11:35:38.390Z,8.00
2024-01-25T11:36:38.199Z,7.90
2024-01-25T11:37:38.216Z,7.10
2024-01-25T11:38:38.202Z,7.10
2024-01-25T11:39:38.249Z,8.10
2024-01-25T11:40:38.552Z,7.40
2024-01-25T11:41:38.110Z,7.20
2024-01-25T11:42:38.151Z,6.70
2024-01-25T11:43:38.138Z,7.70
2024-01-25T11:44:38.095Z,7.20
2024-01-25T11:45:38.102Z,6.80
2024-01-25T11:46:38.778Z,6.70
2024-01-25T11:47:38.059Z,7.50
2024-01-25T11:48:38.215Z,7.40
2024-01-25T11:49:38.175Z,6.70
2024-01-25T11:50:38.200Z,7.50
2024-01-25T11:51:38.181Z,7.40
2024-01-25T11:52:38.207Z,6.20
2024-01-25T11:53:37.968Z,6.70
2024-01-25T11:54:38.058Z,7.00
2024-01-25T11:55:38.012Z,6.70
2024-01-25T11:56:37.942Z,6.30
2024-01-25T11:57:37.951Z,7.10
2024-01-25T11:58:40.619Z,6.80
2024-01-25T11:59:37.917Z,6.10
2024-01-25T12:00:38.169Z,6.60
2024-01-25T12:01:38.095Z,6.20
2024-01-25T12:02:38.043Z,6.20
2024-01-25T12:03:37.904Z,5.90
2024-01-25T12:04:38.370Z,5.70
2024-01-25T12:05:38.020Z,6.20
2024-01-25T12:06:38.326Z,6.50
2024-01-25T12:07:37.949Z,6.20
2024-01-25T12:08:37.786Z,6.30
2024-01-25T12:09:37.843Z,6.90
2024-01-25T12:10:37.874Z,6.50
2024-01-25T12:11:37.766Z,7.30
2024-01-25T12:12:37.886Z,6.60
2024-01-25T12:13:37.805Z,6.80
2024-01-25T12:14:37.705Z,6.80
2024-01-25T12:15:37.781Z,7.00
2024-01-25T12:16:38.925Z,6.60
2024-01-25T12:17:37.946Z,6.80
2024-01-25T12:18:38.001Z,6.60
2024-01-25T12:19:37.964Z,6.10
2024-01-25T12:20:37.806Z,6.60
2024-01-25T12:21:38.150Z,6.30
2024-01-25T12:22:38.486Z,6.00
2024-01-25T12:23:37.606Z,6.20
2024-01-25T12:24:39.142Z,6.60
2024-01-25T12:25:37.630Z,5.90
2024-01-25T12:26:37.609Z,6.40
2024-01-25T12:27:37.604Z,6.20
2024-01-25T12:28:37.766Z,6.30
2024-01-25T12:29:37.570Z,6.00
2024-01-25T12:30:37.617Z,6.10
2024-01-25T12:31:37.656Z,6.30
2024-01-25T12:32:37.567Z,6.20
2024-01-25T12:33:37.840Z,6.30
2024-01-25T12:34:38.325Z,5.80
2024-01-25T12:35:37.565Z,6.20
2024-01-25T12:36:37.553Z,6.10
2024-01-25T12:37:37.600Z,6.50
2024-01-25T12:38:37.465Z,6.50
2024-01-25T12:39:37.478Z,5.90
2024-01-25T12:40:37.490Z,5.40
2024-01-25T12:41:37.459Z,5.90
2024-01-25T12:42:37.551Z,5.70
2024-01-25T12:43:37.404Z,5.50
2024-01-25T12:44:37.494Z,5.50
2024-01-25T12:45:37.407Z,5.80
2024-01-25T12:46:37.365Z,5.40
2024-01-25T12:47:37.579Z,5.60
2024-01-25T12:48:37.385Z,5.60
2024-01-25T12:49:37.317Z,5.30
2024-01-25T12:50:37.305Z,5.40
2024-01-25T12:51:37.333Z,5.10
2024-01-25T12:52:37.276Z,5.00
2024-01-25T12:53:37.286Z,4.80
2024-01-25T12:54:37.321Z,4.90
2024-01-25T12:55:37.245Z,5.20
2024-01-25T12:56:37.236Z,4.70
2024-01-25T12:57:37.242Z,5.00
2024-01-25T12:58:37.216Z,5.10
2024-01-25T12:59:37.212Z,5.60
2024-01-25T13:00:37.299Z,4.80
2024-01-25T13:01:37.272Z,4.90
2024-01-25T13:02:37.167Z,5.40
2024-01-25T13:03:39.686Z,5.40
2024-01-25T13:04:37.235Z,5.20
2024-01-25T13:05:37.220Z,5.00
2024-01-25T13:06:37.158Z,4.80
2024-01-25T13:07:37.104Z,5.00
2024-01-25T13:08:37.103Z,5.40
2024-01-25T13:09:37.150Z,4.90
2024-01-25T13:10:37.126Z,5.10
2024-01-25T13:11:37.052Z,5.20
2024-01-25T13:12:37.089Z,4.90
2024-01-25T13:13:37.062Z,5.00
2024-01-25T13:14:37.028Z,5.30